Time;durP1;ratioP1;P1;durP2;ratioP2;P2;SDS_P1;SDS_P2;PMS_P1;PMS_P2;Temp;Humidity;BMP_temperature;BMP_pressure;BME280_temperature;BME280_humidity;BME280_pressure;Samples;Min_cycle;Max_cycle;Signal;HPM_P1;HPM_P2
2021/08/06 00:01:26;;;;;;;0.95;0.40;;;;;;;19.72;56.12;101597.34;5033366;28;20499;-68
2021/08/06 00:03:55;;;;;;;1.83;0.20;;;;;;;19.65;56.35;101602.59;5033642;28;20364;-68
2021/08/06 00:06:26;;;;;;;0.77;0.30;;;;;;;19.69;56.00;101592.22;5033617;28;20032;-68
2021/08/06 00:08:52;;;;;;;2.08;0.50;;;;;;;19.69;56.92;101589.47;5033639;28;20029;-67
2021/08/06 00:11:17;;;;;;;1.98;0.52;;;;;;;19.72;55.60;101594.59;5032164;28;20368;-66
2021/08/06 00:13:43;;;;;;;1.15;0.40;;;;;;;19.69;57.07;101592.22;5033412;28;20113;-66
2021/08/06 00:16:08;;;;;;;0.40;0.10;;;;;;;19.76;56.36;101593.25;5033491;28;20025;-67
2021/08/06 00:18:34;;;;;;;2.67;0.63;;;;;;;19.79;56.12;101595.66;5033491;28;20033;-67
2021/08/06 00:21:00;;;;;;;0.98;0.20;;;;;;;19.73;57.18;101582.69;5033468;28;20075;-67
2021/08/06 00:23:25;;;;;;;0.70;0.20;;;;;;;19.75;57.39;101591.53;5033434;28;20059;-68
2021/08/06 00:25:51;;;;;;;1.05;0.30;;;;;;;19.72;56.39;101586.41;5033378;28;20056;-66
2021/08/06 00:28:16;;;;;;;0.73;0.40;;;;;;;19.70;57.64;101588.47;5032280;28;20032;-66
2021/08/06 00:30:43;;;;;;;1.17;0.57;;;;;;;19.75;56.02;101586.94;5033553;28;20029;-67
2021/08/06 00:33:09;;;;;;;1.55;0.30;;;;;;;19.72;56.49;101586.41;5033219;28;20041;-67
2021/08/06 00:35:36;;;;;;;0.30;0.30;;;;;;;19.74;56.68;101584.38;5033350;28;20492;-67
2021/08/06 00:38:03;;;;;;;1.70;0.15;;;;;;;19.73;57.16;101585.41;5033389;28;20022;-66
2021/08/06 00:40:48;;;;;;;1.08;0.40;;;;;;;19.75;55.93;101589.66;5033149;28;20021;-69
2021/08/06 00:43:23;;;;;;;1.58;1.25;;;;;;;19.73;56.73;101582.69;5033642;28;20048;-68
2021/08/06 00:45:49;;;;;;;1.83;0.52;;;;;;;19.77;56.47;101568.53;5037122;28;20375;-68
2021/08/06 00:48:17;;;;;;;1.15;0.20;;;;;;;19.70;57.40;101577.56;5036864;28;20036;-69
2021/08/06 00:50:43;;;;;;;2.15;0.30;;;;;;;19.75;55.95;101569.72;5037014;28;20029;-68
2021/08/06 00:53:14;;;;;;;0.85;0.30;;;;;;;19.70;56.88;101572.94;5037170;28;20032;-67
2021/08/06 00:55:41;;;;;;;0.17;0.13;;;;;;;19.74;56.07;101589.84;5037095;28;20034;-65
2021/08/06 00:58:07;;;;;;;0.55;0.30;;;;;;;19.74;57.86;101584.38;5036771;28;20025;-66
2021/08/06 01:00:32;;;;;;;2.20;0.20;;;;;;;19.66;57.99;101587.09;5036814;28;20066;-66
2021/08/06 01:03:23;;;;;;;2.42;0.77;;;;;;;19.70;56.47;101591.19;5036938;28;20526;-66
2021/08/06 01:05:58;;;;;;;0.65;0.25;;;;;;;19.65;56.81;101591.69;5036911;28;20017;-68
2021/08/06 01:08:34;;;;;;;0.60;0.20;;;;;;;19.71;56.87;101593.75;5036897;28;20492;-68
2021/08/06 01:11:04;;;;;;;1.45;0.40;;;;;;;19.73;56.83;101594.44;5036868;28;20380;-66
2021/08/06 01:13:32;;;;;;;1.48;0.38;;;;;;;19.72;56.33;101591.88;5036614;28;20049;-66
2021/08/06 01:16:02;;;;;;;2.08;0.38;;;;;;;19.69;57.24;101598.50;5035571;28;20018;-68
2021/08/06 01:18:32;;;;;;;0.63;0.30;;;;;;;19.70;56.63;101599.38;5036321;28;20100;-68
2021/08/06 01:21:04;;;;;;;1.10;0.25;;;;;;;19.65;56.69;101602.59;5036409;28;20030;-69
2021/08/06 01:23:34;;;;;;;0.52;0.25;;;;;;;19.70;57.09;101604.84;5035131;28;20457;-69
2021/08/06 01:26:12;;;;;;;0.55;0.20;;;;;;;19.76;56.73;101602.28;5036142;28;20025;-70
2021/08/06 01:28:45;;;;;;;0.80;0.30;;;;;;;19.70;57.20;101602.09;5036490;28;20033;-66
2021/08/06 01:31:13;;;;;;;0.85;0.30;;;;;;;19.71;57.49;101595.63;5036258;28;20028;-69
2021/08/06 01:33:43;;;;;;;2.42;0.30;;;;;;;19.71;57.22;101603.81;5036279;28;20050;-69
2021/08/06 01:36:17;;;;;;;1.80;0.43;;;;;;;19.70;56.85;101599.38;5034978;28;20018;-68
2021/08/06 01:38:43;;;;;;;0.70;0.20;;;;;;;19.65;56.39;101607.16;5036041;28;20029;-67
2021/08/06 01:41:28;;;;;;;0.68;0.22;;;;;;;19.66;55.30;101603.44;5036043;28;20026;-66
2021/08/06 01:43:58;;;;;;;;;;;;;;;19.65;55.99;101607.16;5036735;28;20032;-65
2021/08/06 01:46:51;;;;;;;0.40;0.30;;;;;;;19.60;55.63;101610.38;5035956;28;19916;-64
2021/08/06 01:49:24;;;;;;;1.58;0.40;;;;;;;19.62;56.39;101602.88;5035989;28;20104;-67
2021/08/06 01:52:06;;;;;;;1.20;0.50;;;;;;;19.64;56.76;101610.91;5035872;28;20021;-65
2021/08/06 01:54:33;;;;;;;0.90;0.35;;;;;;;19.66;56.39;101617.09;5035414;28;20570;-64
2021/08/06 01:56:59;;;;;;;1.00;0.25;;;;;;;19.63;56.49;101617.38;5034496;28;20033;-64
2021/08/06 02:00:04;;;;;;;0.60;0.30;;;;;;;19.61;55.83;101622.16;5035796;28;20531;-68
2021/08/06 02:02:29;;;;;;;0.30;0.20;;;;;;;19.68;56.42;101620.50;5033390;28;20069;-66
2021/08/06 02:04:55;;;;;;;0.95;0.35;;;;;;;19.59;56.70;101618.72;5033488;28;20056;-64
2021/08/06 02:07:22;;;;;;;1.55;0.70;;;;;;;19.57;56.70;101609.84;5033225;28;20029;-65
2021/08/06 02:09:47;;;;;;;0.52;0.30;;;;;;;19.55;57.76;101617.34;5033443;28;20543;-64
2021/08/06 02:12:13;;;;;;;0.15;0.13;;;;;;;19.59;56.48;101616.84;5033292;28;20021;-64
2021/08/06 02:14:40;;;;;;;1.98;0.40;;;;;;;19.55;56.99;101614.63;5033371;28;20061;-66
2021/08/06 02:17:07;;;;;;;0.88;0.20;;;;;;;19.55;56.49;101615.47;5033403;28;20399;-65
2021/08/06 02:19:43;;;;;;;0.40;0.28;;;;;;;19.60;56.36;101614.97;5033396;28;20480;-66
2021/08/06 02:22:10;;;;;;;0.43;0.20;;;;;;;19.57;57.00;101618.03;5016165;28;20025;-65
2021/08/06 02:24:39;;;;;;;2.58;0.20;;;;;;;19.56;57.09;101613.59;5033342;28;20595;-63
2021/08/06 02:27:05;;;;;;;1.90;0.30;;;;;;;19.62;56.54;101613.81;5033228;28;20044;-64
2021/08/06 02:29:32;;;;;;;0.95;0.25;;;;;;;19.63;56.87;101614.66;5032874;28;20034;-64
2021/08/06 02:32:00;;;;;;;2.05;0.35;;;;;;;19.60;56.96;101612.25;5033095;28;20407;-64
2021/08/06 02:34:26;;;;;;;0.88;0.30;;;;;;;19.60;56.95;101613.09;5016480;28;20029;-67
2021/08/06 02:36:54;;;;;;;1.08;0.40;;;;;;;19.58;56.78;101611.56;5034330;28;20480;-67
2021/08/06 02:39:23;;;;;;;1.45;0.30;;;;;;;19.58;57.88;101617.03;5035102;28;20052;-67
2021/08/06 02:42:22;;;;;;;0.38;0.30;;;;;;;19.57;57.24;101620.75;5034842;28;20032;-67
2021/08/06 02:44:48;;;;;;;0.50;0.28;;;;;;;19.57;57.01;101620.75;5013113;28;20045;-65
2021/08/06 02:47:14;;;;;;;1.92;0.47;;;;;;;19.52;57.46;101619.34;5013019;28;20030;-65
2021/08/06 02:49:49;;;;;;;0.45;0.15;;;;;;;19.54;57.32;101627.41;5012939;28;20538;-65
2021/08/06 02:52:16;;;;;;;1.80;0.30;;;;;;;19.49;57.20;101573.31;5012887;28;20037;-65
2021/08/06 02:54:43;;;;;;;2.17;0.40;;;;;;;19.51;56.94;101568.56;5012784;28;20457;-67
2021/08/06 02:57:09;;;;;;;0.80;0.40;;;;;;;19.54;56.47;101567.41;5012849;28;20145;-66
2021/08/06 02:59:36;;;;;;;1.63;0.28;;;;;;;19.50;56.91;101615.94;4996425;28;20619;-66
2021/08/06 03:02:01;;;;;;;0.77;0.30;;;;;;;19.49;57.38;101619.69;5012608;28;20049;-66
2021/08/06 03:04:28;;;;;;;0.20;0.13;;;;;;;19.51;57.44;101612.19;5012785;28;20425;-66
2021/08/06 03:06:54;;;;;;;0.80;0.30;;;;;;;19.46;56.84;101609.06;5011664;28;20045;-66
2021/08/06 03:09:20;;;;;;;0.95;0.30;;;;;;;19.50;56.35;101620.53;4996246;28;20112;-67
2021/08/06 03:11:46;;;;;;;0.63;0.25;;;;;;;19.48;57.96;101617.97;5012716;28;20029;-67
2021/08/06 03:14:13;;;;;;;1.63;0.50;;;;;;;19.45;57.35;101596.44;5012398;28;20042;-67
2021/08/06 03:16:39;;;;;;;0.40;0.20;;;;;;;19.47;57.43;101599.88;5012659;28;20076;-67
2021/08/06 03:19:06;;;;;;;0.70;0.30;;;;;;;19.46;56.66;101594.56;5012410;28;20436;-67
2021/08/06 03:21:32;;;;;;;0.93;0.10;;;;;;;19.51;57.07;101600.44;5033471;28;20052;-65
2021/08/06 03:23:59;;;;;;;2.05;0.30;;;;;;;19.48;57.06;101587.09;5034373;28;20069;-65
2021/08/06 03:26:24;;;;;;;1.45;0.22;;;;;;;19.45;57.31;101588.25;5034019;28;20381;-64
2021/08/06 03:28:49;;;;;;;2.95;0.38;;;;;;;19.46;56.81;101587.25;5034231;28;20075;-64
2021/08/06 03:31:15;;;;;;;1.67;0.50;;;;;;;19.45;57.68;101588.25;5034039;28;20022;-63
2021/08/06 03:33:40;;;;;;;0.88;0.40;;;;;;;19.44;56.78;101583.84;5034237;28;20025;-64
2021/08/06 03:36:07;;;;;;;1.50;0.50;;;;;;;19.42;56.63;101585.88;5034084;28;20385;-63
2021/08/06 03:38:32;;;;;;;1.20;0.70;;;;;;;19.40;57.98;101592.50;5033623;28;20380;-66
2021/08/06 03:40:58;;;;;;;0.50;0.25;;;;;;;19.46;56.40;101581.78;5034045;28;20036;-66
2021/08/06 03:43:24;;;;;;;0.30;0.30;;;;;;;19.45;57.43;101580.09;5034034;28;20025;-67
2021/08/06 03:46:00;;;;;;;0.82;0.22;;;;;;;19.45;56.94;101585.53;5033857;28;20036;-68
2021/08/06 03:48:34;;;;;;;1.00;0.28;;;;;;;19.47;55.89;101582.66;5033941;28;20063;-68
2021/08/06 03:51:04;;;;;;;0.82;0.30;;;;;;;19.44;56.69;101583.84;5033831;28;20080;-67
2021/08/06 03:53:29;;;;;;;1.33;0.32;;;;;;;19.38;57.80;101589.94;5034145;28;20079;-68
2021/08/06 03:55:56;;;;;;;0.70;0.32;;;;;;;19.43;57.21;101587.56;5033701;28;20112;-67
2021/08/06 03:58:22;;;;;;;0.22;0.20;;;;;;;19.39;57.12;101591.66;5033872;28;20044;-66
2021/08/06 04:00:47;;;;;;;0.55;0.20;;;;;;;19.39;56.99;101588.91;5032962;28;20471;-60
2021/08/06 04:03:13;;;;;;;0.68;0.20;;;;;;;20.46;53.58;101590.31;5033375;28;20384;-60
2021/08/06 04:05:38;;;;;;;1.15;0.35;;;;;;;20.77;53.34;101593.25;5033453;28;20392;-60
2021/08/06 04:08:09;;;;;;;1.88;0.25;;;;;;;20.95;53.91;101585.75;5033430;28;20375;-59
2021/08/06 04:10:35;;;;;;;0.57;0.20;;;;;;;21.05;52.77;101578.25;5033360;28;20029;-59
2021/08/06 04:13:02;;;;;;;0.52;0.13;;;;;;;21.14;52.34;101579.94;5032310;28;20024;-59
2021/08/06 04:15:28;;;;;;;0.30;0.10;;;;;;;21.22;52.44;101566.28;5033463;28;20682;-59
2021/08/06 04:17:54;;;;;;;0.93;0.20;;;;;;;21.28;53.95;101573.81;5035040;28;20026;-60
2021/08/06 04:20:19;;;;;;;0.68;0.20;;;;;;;21.34;52.80;101568.69;5037280;28;20373;-59
2021/08/06 04:22:45;;;;;;;0.35;0.10;;;;;;;21.39;53.53;101569.00;5037259;28;20116;-60
2021/08/06 04:25:11;;;;;;;0.63;0.30;;;;;;;21.39;54.01;101569.88;5037071;28;20537;-60
2021/08/06 04:27:38;;;;;;;0.20;0.20;;;;;;;21.45;54.21;101574.63;5037334;28;20064;-60
2021/08/06 04:30:06;;;;;;;1.70;0.47;;;;;;;21.49;54.53;101566.91;5037183;28;20029;-60
2021/08/06 04:32:32;;;;;;;1.90;0.30;;;;;;;21.46;54.14;101572.75;5036901;28;20033;-60
2021/08/06 04:34:57;;;;;;;1.58;0.30;;;;;;;21.44;54.41;101570.19;5037076;28;20486;-59
2021/08/06 04:37:23;;;;;;;0.77;0.10;;;;;;;21.52;54.56;101572.06;5036917;28;20106;-60
2021/08/06 04:39:48;;;;;;;0.77;0.17;;;;;;;21.53;53.85;101568.31;5037019;28;20368;-59
2021/08/06 04:42:15;;;;;;;0.68;0.20;;;;;;;21.50;54.51;101572.25;5036741;28;20014;-60
2021/08/06 04:44:40;;;;;;;0.75;0.22;;;;;;;21.52;54.48;101574.81;5035627;28;20056;-59
2021/08/06 04:47:06;;;;;;;0.85;0.35;;;;;;;21.53;55.12;101573.78;5036907;28;20456;-59
2021/08/06 04:49:32;;;;;;;0.40;0.10;;;;;;;21.55;54.29;101571.72;5036772;28;20076;-60
2021/08/06 04:51:59;;;;;;;1.10;0.10;;;;;;;21.56;55.76;101570.69;5036796;28;20499;-60
2021/08/06 04:54:24;;;;;;;0.60;0.30;;;;;;;21.59;53.68;101573.06;5036527;28;20061;-59
2021/08/06 04:56:50;;;;;;;1.20;0.10;;;;;;;21.66;53.82;101585.00;5036731;28;20029;-59
2021/08/06 04:59:15;;;;;;;0.40;0.30;;;;;;;21.66;54.77;101578.69;5036524;28;20468;-59
2021/08/06 05:01:40;;;;;;;0.35;0.20;;;;;;;21.65;54.67;101568.75;5036292;28;20038;-59
2021/08/06 05:04:06;;;;;;;0.68;0.20;;;;;;;21.67;53.70;101567.59;5036440;28;20447;-59
2021/08/06 05:06:31;;;;;;;0.75;0.22;;;;;;;21.61;55.75;101571.84;5036181;28;20037;-59
2021/08/06 05:08:57;;;;;;;0.20;0.08;;;;;;;21.67;54.60;101553.00;5036565;28;20372;-59
2021/08/06 05:11:22;;;;;;;0.68;0.13;;;;;;;21.65;55.60;101544.97;5036384;28;20059;-59
2021/08/06 05:13:48;;;;;;;0.73;0.10;;;;;;;21.71;54.24;101544.31;5036352;28;20053;-59
2021/08/06 05:16:13;;;;;;;0.60;0.20;;;;;;;21.71;54.49;101544.31;5036177;28;20029;-59
2021/08/06 05:18:39;;;;;;;1.02;0.30;;;;;;;21.73;55.84;101536.75;5034952;28;20106;-59
2021/08/06 05:21:05;;;;;;;0.98;0.22;;;;;;;21.69;54.70;101535.41;5036248;28;20499;-59
2021/08/06 05:23:30;;;;;;;0.75;0.38;;;;;;;21.75;54.78;101528.38;5036332;28;20091;-59
2021/08/06 05:25:56;;;;;;;1.42;0.20;;;;;;;21.75;56.33;101522.91;5036132;28;20690;-59
2021/08/06 05:28:22;;;;;;;0.75;0.22;;;;;;;21.75;54.81;101522.91;5036072;28;20048;-58
2021/08/06 05:30:48;;;;;;;1.15;0.20;;;;;;;21.75;55.27;101517.44;5035495;28;20030;-59
2021/08/06 05:33:14;;;;;;;0.20;0.10;;;;;;;21.74;55.70;101511.09;5035882;28;20029;-59
2021/08/06 05:35:41;;;;;;;1.02;0.20;;;;;;;21.76;55.48;101492.63;5035951;28;20021;-59
2021/08/06 05:38:08;;;;;;;0.55;0.20;;;;;;;21.75;56.04;101501.84;5035957;28;20076;-60
2021/08/06 05:40:34;;;;;;;0.47;0.30;;;;;;;21.79;54.82;101496.88;5035801;28;20034;-60
2021/08/06 05:43:00;;;;;;;0.13;0.13;;;;;;;21.81;55.64;101495.66;5035564;28;20372;-60
2021/08/06 05:45:25;;;;;;;0.40;0.20;;;;;;;21.71;56.16;101489.56;5035724;28;20029;-60
2021/08/06 05:47:52;;;;;;;0.73;0.20;;;;;;;21.53;55.22;101481.59;5035706;28;20018;-60
2021/08/06 05:50:20;;;;;;;0.57;0.10;;;;;;;21.57;53.97;101487.56;5034479;28;20063;-60
2021/08/06 05:52:52;;;;;;;1.00;0.40;;;;;;;21.50;55.45;101481.09;5035637;28;20031;-60
2021/08/06 05:55:17;;;;;;;0.10;0.10;;;;;;;21.48;55.14;101472.19;5035625;28;20498;-60
2021/08/06 05:57:44;;;;;;;0.70;0.15;;;;;;;21.48;55.42;101480.41;5035605;28;20025;-60
2021/08/06 06:00:11;;;;;;;0.60;0.20;;;;;;;21.49;55.26;101476.63;5035439;28;20055;-60
2021/08/06 06:02:36;;;;;;;0.20;0.20;;;;;;;21.46;56.64;101482.47;5035269;28;20136;-60
2021/08/06 06:05:02;;;;;;;0.95;0.28;;;;;;;21.42;55.50;101478.38;5034199;28;20112;-60
2021/08/06 06:07:28;;;;;;;0.40;0.10;;;;;;;21.42;56.78;101473.78;5035362;28;20435;-60
2021/08/06 06:09:53;;;;;;;0.63;0.10;;;;;;;21.39;55.77;101467.81;5035433;28;20021;-59
2021/08/06 06:12:21;;;;;;;0.63;0.10;;;;;;;21.39;54.51;101470.53;5035359;28;20456;-61
2021/08/06 06:14:46;;;;;;;0.45;0.20;;;;;;;21.34;54.10;101475.69;5035141;28;20025;-60
2021/08/06 06:17:13;;;;;;;2.60;0.25;;;;;;;21.31;53.09;101474.13;5035263;28;20389;-60
2021/08/06 06:19:44;;;;;;;1.27;0.10;;;;;;;21.29;54.39;101468.84;5035271;28;20036;-59
2021/08/06 06:22:10;;;;;;;0.63;0.25;;;;;;;21.29;55.11;101466.13;5034988;28;20014;-59
2021/08/06 06:24:35;;;;;;;3.05;0.77;;;;;;;21.31;53.51;101461.31;5035042;28;20372;-59
2021/08/06 06:27:00;;;;;;;2.15;0.50;;;;;;;21.38;54.73;101471.56;5035009;28;20048;-59
2021/08/06 06:29:26;;;;;;;0.80;0.32;;;;;;;21.30;53.45;101462.34;5035086;28;20021;-59
2021/08/06 06:31:51;;;;;;;1.33;0.40;;;;;;;21.29;53.80;101463.38;5034912;28;20025;-59
2021/08/06 06:34:16;;;;;;;0.57;0.22;;;;;;;21.27;54.79;101459.97;5034847;28;20071;-59
2021/08/06 06:36:42;;;;;;;0.95;0.10;;;;;;;21.26;55.42;101463.72;5034686;28;20748;-60
2021/08/06 06:39:07;;;;;;;0.20;0.10;;;;;;;21.25;56.01;101462.03;5032084;28;20017;-60
2021/08/06 06:41:32;;;;;;;0.47;0.30;;;;;;;21.25;55.52;101461.19;5019302;28;20106;-60
2021/08/06 06:43:58;;;;;;;1.85;0.30;;;;;;;21.34;56.14;101462.03;5033919;28;20033;-60
2021/08/06 06:46:23;;;;;;;0.20;0.20;;;;;;;21.29;55.56;101468.00;5034741;28;20029;-60
2021/08/06 06:48:49;;;;;;;0.65;0.30;;;;;;;21.29;55.04;101462.53;5034443;28;20530;-60
2021/08/06 06:51:14;;;;;;;1.48;0.32;;;;;;;21.32;54.64;101465.75;5034355;28;20360;-60
2021/08/06 06:53:39;;;;;;;1.00;0.30;;;;;;;21.26;55.94;101457.41;5018809;28;20045;-59
2021/08/06 06:56:05;;;;;;;1.25;0.30;;;;;;;21.20;55.44;101464.41;5014816;28;20029;-59
2021/08/06 06:58:30;;;;;;;1.52;0.30;;;;;;;21.22;56.42;101458.78;5025556;28;20045;-61
2021/08/06 07:00:57;;;;;;;1.02;0.30;;;;;;;21.43;55.37;101463.69;5033951;28;20635;-60
2021/08/06 07:03:23;;;;;;;0.68;0.40;;;;;;;21.28;55.07;101467.16;5034296;28;20079;-60
2021/08/06 07:05:48;;;;;;;1.88;0.40;;;;;;;21.42;55.47;101459.25;5017303;28;20472;-60
2021/08/06 07:08:13;;;;;;;0.50;0.40;;;;;;;21.34;55.59;101464.75;5017489;28;20028;-60
2021/08/06 07:10:39;;;;;;;0.47;0.28;;;;;;;21.32;55.39;101468.50;5020801;28;20025;-60
2021/08/06 07:13:04;;;;;;;0.50;0.35;;;;;;;21.28;55.67;101478.09;5033682;28;20021;-59
2021/08/06 07:15:30;;;;;;;1.75;0.40;;;;;;;21.33;57.05;101474.81;5031663;28;20111;-59
2021/08/06 07:17:55;;;;;;;0.47;0.40;;;;;;;21.32;54.42;101473.97;5023951;28;20017;-60
2021/08/06 07:20:21;;;;;;;0.57;0.30;;;;;;;21.22;56.44;101473.28;5023397;28;20384;-62
2021/08/06 07:22:48;;;;;;;0.28;0.22;;;;;;;21.28;55.12;101482.69;5030026;28;20028;-62
2021/08/06 07:25:15;;;;;;;0.45;0.30;;;;;;;21.37;55.68;101480.81;5031950;28;20034;-63
2021/08/06 07:27:43;;;;;;;0.90;0.43;;;;;;;21.32;54.08;101476.69;5030827;28;20033;-59
2021/08/06 07:30:09;;;;;;;1.02;0.50;;;;;;;21.31;57.63;101477.72;5014069;28;20059;-62
2021/08/06 07:32:35;;;;;;;1.80;0.43;;;;;;;21.24;55.80;101476.75;5013845;28;20013;-59
2021/08/06 07:35:00;;;;;;;0.28;0.20;;;;;;;21.22;55.94;101470.56;5013844;28;20080;-58
2021/08/06 07:37:26;;;;;;;1.13;0.30;;;;;;;21.32;54.14;101473.97;5015680;28;20052;-58
2021/08/06 07:39:52;;;;;;;2.20;0.82;;;;;;;21.21;56.59;101488.00;5036154;28;20057;-59
2021/08/06 07:42:18;;;;;;;1.80;0.55;;;;;;;21.28;55.69;101483.56;5036205;28;20025;-59
2021/08/06 07:44:44;;;;;;;0.55;0.32;;;;;;;21.32;55.76;101484.91;5028475;28;20036;-58
2021/08/06 07:47:09;;;;;;;2.67;0.63;;;;;;;21.29;56.53;101479.78;5028560;28;20050;-60
2021/08/06 07:49:35;;;;;;;0.40;0.30;;;;;;;21.23;55.73;101477.72;5049110;28;20103;-60
2021/08/06 07:52:00;;;;;;;0.60;0.28;;;;;;;21.25;55.31;101483.06;5046535;28;20018;-60
2021/08/06 07:54:26;;;;;;;1.02;0.45;;;;;;;21.25;54.36;101478.44;5032241;28;20034;-63
2021/08/06 07:56:51;;;;;;;1.27;0.60;;;;;;;21.30;55.89;101481.50;5033420;28;20048;-61
2021/08/06 07:59:19;;;;;;;1.15;0.32;;;;;;;21.25;56.03;101494.84;5033177;28;20031;-61
2021/08/06 08:01:44;;;;;;;0.35;0.32;;;;;;;21.35;54.85;101483.72;5022526;28;20420;-62
2021/08/06 08:04:11;;;;;;;0.50;0.35;;;;;;;21.34;53.07;101489.38;5023953;28;20060;-60
2021/08/06 08:06:37;;;;;;;1.20;0.38;;;;;;;21.27;54.89;101481.84;5020519;28;20030;-58
2021/08/06 08:09:02;;;;;;;0.32;0.30;;;;;;;21.28;54.32;101486.28;5023331;28;20064;-60
2021/08/06 08:11:27;;;;;;;0.50;0.20;;;;;;;21.27;54.68;101481.84;5032250;28;20392;-60
2021/08/06 08:13:52;;;;;;;0.60;0.30;;;;;;;21.35;54.83;101489.19;5026746;28;20021;-59
2021/08/06 08:16:18;;;;;;;1.08;0.50;;;;;;;21.30;54.92;101486.09;5025017;28;20511;-60
2021/08/06 08:18:43;;;;;;;0.47;0.38;;;;;;;21.32;54.48;101482.16;5020069;28;20021;-63
2021/08/06 08:21:09;;;;;;;0.95;0.30;;;;;;;21.34;55.34;101470.22;5018117;28;20029;-63
2021/08/06 08:23:34;;;;;;;2.15;0.68;;;;;;;21.42;53.51;101478.38;5014569;28;20029;-61
2021/08/06 08:26:00;;;;;;;0.52;0.40;;;;;;;21.35;54.26;101477.41;5032995;28;20060;-63
2021/08/06 08:28:26;;;;;;;1.05;0.40;;;;;;;21.32;54.93;101467.63;5049508;28;20403;-58
2021/08/06 08:30:52;;;;;;;1.02;0.38;;;;;;;21.36;55.48;101473.63;5052857;28;20048;-61
2021/08/06 08:33:18;;;;;;;1.67;0.25;;;;;;;21.36;53.59;101474.50;5051491;28;20017;-61
2021/08/06 08:35:44;;;;;;;1.48;0.45;;;;;;;21.31;54.37;101477.72;5051698;28;20025;-61
2021/08/06 08:38:09;;;;;;;0.68;0.32;;;;;;;21.34;55.14;101472.97;5032612;28;20048;-61
2021/08/06 08:40:36;;;;;;;0.50;0.20;;;;;;;21.34;54.41;101465.59;5032930;28;20096;-60
2021/08/06 08:43:02;;;;;;;0.90;0.40;;;;;;;21.32;56.20;101473.97;5035849;28;20029;-56
2021/08/06 08:45:28;;;;;;;1.02;0.30;;;;;;;21.35;55.05;101466.47;5032615;28;20028;-58
2021/08/06 08:47:54;;;;;;;1.98;0.30;;;;;;;21.31;54.88;101466.78;5032851;28;20025;-56
2021/08/06 08:50:19;;;;;;;1.95;0.82;;;;;;;21.30;55.56;101478.75;5032661;28;20026;-57
2021/08/06 08:52:45;;;;;;;0.80;0.20;;;;;;;21.36;55.10;101463.56;5032757;28;20032;-56
2021/08/06 08:55:11;;;;;;;1.38;0.60;;;;;;;21.30;55.74;101454.16;5032050;28;20071;-57
2021/08/06 08:57:36;;;;;;;0.45;0.32;;;;;;;21.31;54.82;101461.31;5027060;28;20387;-58
2021/08/06 09:00:04;;;;;;;0.50;0.15;;;;;;;21.37;56.62;101458.94;5038635;28;20017;-59
2021/08/06 09:02:29;;;;;;;0.45;0.30;;;;;;;21.40;55.99;101458.56;5030723;28;20080;-58
2021/08/06 09:05:09;;;;;;;2.08;0.30;;;;;;;21.39;56.56;101456.88;5033987;28;20041;-59
2021/08/06 09:07:34;;;;;;;0.50;0.40;;;;;;;21.37;55.52;101453.47;5036181;28;20162;-56
2021/08/06 09:10:11;;;;;;;1.10;0.40;;;;;;;21.32;53.51;101452.09;5036520;28;20516;-55
2021/08/06 09:12:59;;;;;;;0.40;0.20;;;;;;;21.34;54.84;101443.72;5035884;28;20028;-57
2021/08/06 09:15:45;;;;;;;0.22;0.20;;;;;;;21.34;55.71;101445.63;5036149;28;20483;-55
2021/08/06 09:18:30;;;;;;;1.38;0.50;;;;;;;21.34;56.54;101449.19;5038640;28;20195;-58
2021/08/06 09:21:18;;;;;;;0.52;0.52;;;;;;;21.37;55.26;101445.25;5031912;28;20068;-56
2021/08/06 09:23:54;;;;;;;0.75;0.40;;;;;;;21.38;54.68;101445.06;5030246;28;20403;-56
2021/08/06 09:26:42;;;;;;;0.80;0.38;;;;;;;21.38;54.11;101449.69;5025525;28;20676;-56
2021/08/06 09:29:07;;;;;;;1.25;0.30;;;;;;;21.36;56.09;101446.28;5033146;28;20024;-57
2021/08/06 09:31:36;;;;;;;1.25;0.40;;;;;;;21.37;55.15;101439.78;5033883;28;20114;-57
2021/08/06 09:34:12;;;;;;;0.40;0.20;;;;;;;21.35;55.30;101436.38;5024210;28;20484;-59
2021/08/06 09:36:50;;;;;;;0.63;0.20;;;;;;;21.38;54.73;101425.94;5021535;28;20022;-58
2021/08/06 09:39:16;;;;;;;1.15;0.30;;;;;;;21.30;56.15;101425.94;5019509;28;20021;-59
2021/08/06 09:41:44;;;;;;;0.40;0.30;;;;;;;21.31;54.15;101423.03;5028504;28;20441;-60
2021/08/06 09:44:25;;;;;;;0.40;0.30;;;;;;;21.32;56.51;101416.53;5017951;28;20123;-61
2021/08/06 09:46:51;;;;;;;0.45;0.30;;;;;;;21.32;56.37;101426.63;5024578;28;20087;-59
2021/08/06 09:49:18;;;;;;;0.38;0.25;;;;;;;21.31;56.07;101423.03;5020318;28;20034;-58
2021/08/06 09:51:46;;;;;;;0.30;0.30;;;;;;;21.35;54.62;101422.69;5019119;28;20018;-58
2021/08/06 09:54:27;;;;;;;2.42;0.60;;;;;;;21.35;55.71;101415.34;5021458;28;20048;-59
2021/08/06 09:57:06;;;;;;;0.52;0.47;;;;;;;21.34;55.52;101415.53;5041416;28;20103;-59
2021/08/06 09:59:34;;;;;;;1.42;0.40;;;;;;;21.28;57.10;101417.06;5031297;28;20037;-59
2021/08/06 10:02:15;;;;;;;0.60;0.40;;;;;;;21.33;54.51;101409.19;5027804;28;20084;-59
2021/08/06 10:04:42;;;;;;;1.45;0.52;;;;;;;21.31;54.62;101416.72;5015560;28;20029;-58
2021/08/06 10:07:08;;;;;;;1.40;0.40;;;;;;;21.28;55.41;101417.91;5014797;28;20022;-58
2021/08/06 10:09:34;;;;;;;0.90;0.32;;;;;;;21.30;54.19;101418.59;5022690;28;20041;-59
2021/08/06 10:12:00;;;;;;;1.38;0.40;;;;;;;21.28;55.13;101423.38;5016480;28;20034;-59
2021/08/06 10:14:26;;;;;;;0.77;0.20;;;;;;;21.31;55.78;101423.03;5026767;28;20030;-60
2021/08/06 10:16:51;;;;;;;1.45;0.35;;;;;;;21.31;53.92;101417.56;5034662;28;20030;-59
2021/08/06 10:19:16;;;;;;;1.95;0.32;;;;;;;21.29;55.64;101419.63;5019733;28;20580;-59
2021/08/06 10:21:42;;;;;;;0.60;0.25;;;;;;;21.25;55.32;101417.44;5015020;28;20026;-59
2021/08/06 10:24:13;;;;;;;0.45;0.30;;;;;;;21.32;55.18;101423.88;5015784;28;20487;-59
2021/08/06 10:26:42;;;;;;;0.43;0.40;;;;;;;21.32;55.90;101424.72;5030923;28;20018;-59
2021/08/06 10:29:08;;;;;;;0.52;0.32;;;;;;;21.34;55.18;101421.00;5014456;28;20093;-58
2021/08/06 10:31:33;;;;;;;1.45;0.40;;;;;;;21.28;55.62;101434.31;5014550;28;20113;-59
2021/08/06 10:34:13;;;;;;;0.47;0.30;;;;;;;21.26;55.33;101430.91;5021904;28;20419;-59
2021/08/06 10:36:43;;;;;;;1.33;0.50;;;;;;;21.28;55.51;101426.13;5025621;28;20057;-58
2021/08/06 10:39:30;;;;;;;1.20;0.30;;;;;;;21.42;54.88;101424.53;5027678;28;20037;-59
2021/08/06 10:41:55;;;;;;;1.48;0.57;;;;;;;21.27;56.64;101405.28;5022882;28;20037;-59
2021/08/06 10:44:20;;;;;;;0.80;0.52;;;;;;;21.27;55.54;101409.91;5014598;28;20176;-59
2021/08/06 10:47:06;;;;;;;1.67;0.55;;;;;;;21.32;55.43;101418.41;5023342;28;20033;-59
2021/08/06 10:49:32;;;;;;;0.55;0.40;;;;;;;21.41;54.18;101413.78;5025156;28;20637;-59
2021/08/06 10:52:11;;;;;;;0.75;0.30;;;;;;;21.28;56.41;101420.66;5019813;28;20381;-59
2021/08/06 10:54:37;;;;;;;0.60;0.38;;;;;;;21.38;55.35;101408.66;5023528;28;20018;-60
2021/08/06 10:57:15;;;;;;;1.08;0.52;;;;;;;21.31;55.31;101414.81;5018322;28;20032;-59
2021/08/06 10:59:41;;;;;;;0.35;0.25;;;;;;;21.29;55.76;101408.69;5033809;28;20407;-59
2021/08/06 11:02:37;;;;;;;2.05;0.40;;;;;;;21.34;55.45;101404.59;5032645;28;20055;-60
2021/08/06 11:05:28;;;;;;;1.20;0.50;;;;;;;21.28;55.57;101403.41;5033511;28;20071;-59
2021/08/06 11:07:54;;;;;;;1.38;0.47;;;;;;;21.28;55.13;101406.97;5004471;28;20444;-59
2021/08/06 11:10:44;;;;;;;0.95;0.32;;;;;;;21.26;55.38;101409.03;5005938;28;20034;-59
2021/08/06 11:13:31;;;;;;;0.52;0.40;;;;;;;21.28;56.17;101401.50;4998895;28;20555;-62
2021/08/06 11:16:05;;;;;;;1.10;0.40;;;;;;;21.35;55.73;101400.81;5007291;28;20042;-63
2021/08/06 11:18:31;;;;;;;0.40;0.22;;;;;;;21.38;54.86;101389.53;4991785;28;20045;-61
2021/08/06 11:20:58;;;;;;;0.75;0.10;;;;;;;21.34;54.64;101391.75;4998663;28;20473;-62
2021/08/06 11:23:23;;;;;;;0.95;0.43;;;;;;;21.29;55.61;101392.28;5011582;28;20044;-62
2021/08/06 11:25:51;;;;;;;0.28;0.28;;;;;;;21.36;54.50;101397.06;5011934;28;20038;-63
2021/08/06 11:28:25;;;;;;;0.68;0.20;;;;;;;21.32;55.71;101397.38;5011145;28;20036;-62
2021/08/06 11:30:51;;;;;;;0.30;0.20;;;;;;;21.32;55.90;101389.19;5011107;28;20320;-62